Time;durP1;ratioP1;P1;durP2;ratioP2;P2;SDS_P1;SDS_P2;PMS_P1;PMS_P2;Temp;Humidity;BMP_temperature;BMP_pressure;BME280_temperature;BME280_humidity;BME280_pressure;Samples;Min_cycle;Max_cycle;Signal;HPM_P1;HPM_P2
2023/04/19 00:01:28;;;;;;;7.97;4.50;;;;;;;8.64;74.42;92597.13;4980955;28;20092;-77
2023/04/19 00:03:55;;;;;;;7.40;4.82;;;;;;;8.67;73.73;92593.97;5007580;28;20042;-77
2023/04/19 00:06:21;;;;;;;11.45;4.65;;;;;;;8.66;73.85;92598.44;4991118;28;20423;-76
2023/04/19 00:08:46;;;;;;;7.57;4.40;;;;;;;8.66;73.14;92592.44;4992300;28;20026;-77
2023/04/19 00:11:12;;;;;;;7.93;4.80;;;;;;;8.64;72.96;92599.75;4991795;28;20042;-77
2023/04/19 00:13:38;;;;;;;7.80;4.60;;;;;;;8.64;73.39;92597.13;4992139;28;20043;-77
2023/04/19 00:16:04;;;;;;;7.65;4.80;;;;;;;8.60;73.31;92591.69;5007530;28;20029;-77
2023/04/19 00:18:30;;;;;;;7.55;4.68;;;;;;;8.57;74.00;92596.66;5005378;28;20089;-76
2023/04/19 00:20:56;;;;;;;7.75;4.50;;;;;;;8.50;74.10;92591.75;4985321;28;20039;-76
2023/04/19 00:23:21;;;;;;;6.53;4.30;;;;;;;8.48;74.29;92599.84;4989751;28;20508;-76
2023/04/19 00:25:48;;;;;;;7.68;4.25;;;;;;;8.45;74.09;92595.16;4992195;28;20539;-76
2023/04/19 00:28:13;;;;;;;8.52;4.80;;;;;;;8.44;74.55;92592.81;4990080;28;20399;-76
2023/04/19 00:30:39;;;;;;;6.95;4.00;;;;;;;8.41;74.26;92596.75;4992169;28;20117;-77
2023/04/19 00:33:04;;;;;;;8.23;4.47;;;;;;;8.39;74.61;92590.22;4992121;28;20503;-77
2023/04/19 00:35:30;;;;;;;9.23;4.57;;;;;;;8.34;74.80;92589.19;4992459;28;20042;-77
2023/04/19 00:37:55;;;;;;;7.38;4.40;;;;;;;8.32;74.44;92583.47;4989537;28;20250;-76
2023/04/19 00:40:21;;;;;;;7.57;4.60;;;;;;;8.29;75.05;92583.25;4978846;28;20576;-77
2023/04/19 00:42:47;;;;;;;7.65;4.57;;;;;;;8.27;75.43;92577.50;4988536;28;20130;-77
2023/04/19 00:45:13;;;;;;;8.02;4.50;;;;;;;8.26;75.07;92583.75;4972111;28;20527;-77
2023/04/19 00:47:39;;;;;;;8.23;4.35;;;;;;;8.26;75.51;92581.16;4988437;28;20112;-77
2023/04/19 00:50:05;;;;;;;7.50;4.30;;;;;;;8.25;74.55;92582.22;4997710;28;20093;-77
2023/04/19 00:52:32;;;;;;;7.97;4.63;;;;;;;8.24;75.41;92578.03;4992608;28;20511;-77
2023/04/19 00:54:59;;;;;;;8.00;4.75;;;;;;;8.25;74.57;92584.81;4990900;28;20480;-77
2023/04/19 00:57:24;;;;;;;7.28;4.35;;;;;;;8.25;75.03;92577.00;4991283;28;20035;-77
2023/04/19 00:59:50;;;;;;;7.00;4.68;;;;;;;8.21;74.89;92578.56;4991106;28;20050;-77
2023/04/19 01:02:16;;;;;;;7.35;4.30;;;;;;;8.19;75.07;92578.06;4992482;28;20469;-77
2023/04/19 01:04:42;;;;;;;7.07;4.35;;;;;;;8.14;75.63;92573.66;4991258;28;20177;-77
2023/04/19 01:07:08;;;;;;;7.85;4.75;;;;;;;8.19;75.72;92573.63;4991717;28;20097;-77
2023/04/19 01:09:34;;;;;;;7.53;4.45;;;;;;;8.14;76.27;92571.03;4990640;28;20068;-77
2023/04/19 01:12:01;;;;;;;7.40;4.70;;;;;;;8.13;76.24;92572.88;4991121;28;20496;-77
2023/04/19 01:14:26;;;;;;;7.53;4.68;;;;;;;8.10;76.46;92568.19;4989700;28;20038;-77
2023/04/19 01:16:53;;;;;;;7.82;4.47;;;;;;;8.08;76.56;92565.09;4992235;28;20027;-77
2023/04/19 01:19:18;;;;;;;6.70;4.45;;;;;;;8.06;76.28;92563.78;4990815;28;20503;-77
2023/04/19 01:21:45;;;;;;;8.25;4.40;;;;;;;8.05;76.34;92570.03;4968553;28;20133;-77
2023/04/19 01:24:10;;;;;;;7.25;4.40;;;;;;;8.02;76.41;92571.38;4991186;28;20411;-77
2023/04/19 01:26:36;;;;;;;6.53;4.03;;;;;;;8.02;76.69;92571.38;4993599;28;20034;-77
2023/04/19 01:29:02;;;;;;;7.22;4.50;;;;;;;8.00;76.01;92565.63;4991732;28;20062;-77
2023/04/19 01:31:27;;;;;;;6.55;4.55;;;;;;;8.00;76.38;92563.03;5010477;28;20050;-76
2023/04/19 01:33:53;;;;;;;7.18;4.30;;;;;;;8.00;76.68;92559.66;5009109;28;20510;-76
2023/04/19 01:36:19;;;;;;;7.88;4.47;;;;;;;7.96;77.30;92562.00;4994843;28;20448;-77
2023/04/19 01:38:46;;;;;;;8.60;4.93;;;;;;;7.91;77.07;92556.81;4990554;28;20273;-77
2023/04/19 01:41:12;;;;;;;8.13;4.40;;;;;;;7.90;77.06;92557.84;4995228;28;20419;-76
2023/04/19 01:43:38;;;;;;;8.80;4.95;;;;;;;7.86;75.93;92551.63;4994995;28;20385;-76
2023/04/19 01:46:03;;;;;;;7.45;4.55;;;;;;;7.89;76.86;92553.69;4993326;28;20066;-76
2023/04/19 01:48:29;;;;;;;7.40;4.60;;;;;;;7.87;76.87;92559.16;4993855;28;20037;-76
2023/04/19 01:50:55;;;;;;;7.97;4.60;;;;;;;7.86;76.82;92549.81;4994421;28;20042;-76
2023/04/19 01:53:21;;;;;;;7.75;4.75;;;;;;;7.82;77.70;92545.38;4993767;28;20121;-76
2023/04/19 01:55:48;;;;;;;7.43;4.50;;;;;;;7.83;77.57;92547.72;4993839;28;20034;-77
2023/04/19 01:58:14;;;;;;;8.73;4.60;;;;;;;7.82;77.22;92548.00;4993275;28;20035;-76
2023/04/19 02:00:40;;;;;;;7.53;4.53;;;;;;;7.82;77.74;92548.00;4992971;28;20049;-77
2023/04/19 02:03:05;;;;;;;7.60;4.60;;;;;;;7.79;78.64;92546.72;4992376;28;20037;-76
2023/04/19 02:05:31;;;;;;;7.95;5.03;;;;;;;7.78;79.31;92539.16;4994805;28;20453;-76
2023/04/19 02:08:00;;;;;;;9.48;4.70;;;;;;;7.77;78.94;92543.59;4992928;28;20034;-76
2023/04/19 02:10:29;;;;;;;8.13;4.80;;;;;;;7.75;79.02;92537.84;4974129;28;20386;-76
2023/04/19 02:12:54;;;;;;;8.77;5.07;;;;;;;7.74;79.73;92543.31;4975148;28;20096;-76
2023/04/19 02:15:20;;;;;;;7.70;4.55;;;;;;;7.73;79.55;92542.56;4973913;28;20038;-77
2023/04/19 02:17:47;;;;;;;7.32;4.82;;;;;;;7.72;79.36;92533.97;4981985;28;20030;-76
2023/04/19 02:20:12;;;;;;;8.45;5.10;;;;;;;7.72;79.07;92531.34;4993281;28;20042;-77
2023/04/19 02:22:38;;;;;;;8.02;4.63;;;;;;;7.74;79.82;92540.72;4993267;28;20117;-77
2023/04/19 02:25:04;;;;;;;7.80;4.53;;;;;;;7.75;80.02;92537.09;4982400;28;20038;-76
2023/04/19 02:27:30;;;;;;;7.97;4.78;;;;;;;7.70;80.16;92527.44;4974918;28;20037;-76
2023/04/19 02:29:55;;;;;;;8.98;5.00;;;;;;;7.69;80.34;92531.88;4974063;28;20051;-76
2023/04/19 02:32:23;;;;;;;8.85;4.53;;;;;;;7.65;79.23;92525.63;4982435;28;20512;-77
2023/04/19 02:34:48;;;;;;;7.13;4.68;;;;;;;7.66;78.12;92526.44;4992161;28;20034;-77
2023/04/19 02:37:14;;;;;;;6.82;4.30;;;;;;;7.61;77.97;92529.84;4994285;28;20374;-77
2023/04/19 02:39:41;;;;;;;8.50;4.97;;;;;;;7.62;79.31;92525.41;4992942;28;20129;-77
2023/04/19 02:42:07;;;;;;;7.65;4.20;;;;;;;7.59;78.81;92526.72;4993536;28;20046;-77
2023/04/19 02:44:32;;;;;;;7.70;4.45;;;;;;;7.58;78.85;92522.53;4993519;28;20117;-77
2023/04/19 02:46:58;;;;;;;7.72;4.18;;;;;;;7.57;78.99;92528.03;4993884;28;20061;-77
2023/04/19 02:49:23;;;;;;;8.05;4.55;;;;;;;7.54;79.08;92523.34;4993061;28;20133;-77
2023/04/19 02:51:51;;;;;;;9.57;4.30;;;;;;;7.49;79.36;92522.31;4991116;28;20050;-76
2023/04/19 02:54:18;;;;;;;10.13;4.32;;;;;;;7.48;79.41;92519.97;4991478;28;20030;-76
2023/04/19 02:56:44;;;;;;;7.82;4.63;;;;;;;7.45;79.92;92521.28;4992407;28;20031;-77
2023/04/19 02:59:10;;;;;;;9.98;4.60;;;;;;;7.44;79.45;92529.38;4993845;28;20129;-76
2023/04/19 03:01:35;;;;;;;9.25;5.03;;;;;;;7.41;81.00;92525.47;4992661;28;20045;-76
2023/04/19 03:04:04;;;;;;;8.43;4.57;;;;;;;7.37;80.65;92519.22;4976743;28;20488;-76
2023/04/19 03:06:30;;;;;;;8.63;4.95;;;;;;;7.35;80.25;92526.53;4991640;28;20096;-77
2023/04/19 03:08:56;;;;;;;7.90;4.45;;;;;;;7.32;80.08;92526.25;4991900;28;20042;-76
2023/04/19 03:11:22;;;;;;;8.10;4.88;;;;;;;7.32;80.13;92521.06;4992262;28;20038;-77
2023/04/19 03:13:47;;;;;;;7.15;4.05;;;;;;;7.30;81.02;92519.50;4985267;28;20034;-77
2023/04/19 03:16:13;;;;;;;7.75;4.65;;;;;;;7.28;80.93;92520.81;4973345;28;20268;-77
2023/04/19 03:18:40;;;;;;;7.40;4.47;;;;;;;7.26;81.83;92513.25;4984485;28;20618;-77
2023/04/19 03:21:08;;;;;;;7.18;4.45;;;;;;;7.22;81.59;92512.22;5000175;28;20050;-77
2023/04/19 03:23:54;;;;;;;7.32;4.22;;;;;;;7.16;82.59;92508.09;4991422;28;20465;-77
2023/04/19 03:26:20;;;;;;;8.50;4.25;;;;;;;7.17;81.69;92514.84;4989106;28;20365;-77
2023/04/19 03:28:49;;;;;;;7.88;4.65;;;;;;;7.17;81.55;92514.84;5008366;28;20092;-77
2023/04/19 03:31:18;;;;;;;7.90;3.92;;;;;;;7.16;81.09;92515.09;5008211;28;20399;-77
2023/04/19 03:33:47;;;;;;;7.43;4.53;;;;;;;7.16;81.02;92510.69;5003706;28;20042;-77
2023/04/19 03:36:13;;;;;;;6.93;4.07;;;;;;;7.13;82.07;92511.19;4991936;28;20049;-77
2023/04/19 03:38:43;;;;;;;7.25;4.18;;;;;;;7.14;82.71;92504.97;4961234;28;20165;-77
2023/04/19 03:41:24;;;;;;;9.10;4.43;;;;;;;7.14;82.29;92504.97;5007507;28;20066;-77
2023/04/19 03:44:10;;;;;;;8.15;4.15;;;;;;;7.12;83.40;92501.84;4992543;28;20059;-77
2023/04/19 03:46:36;;;;;;;7.40;4.40;;;;;;;7.09;83.83;92507.56;4991245;28;20042;-77
2023/04/19 03:49:02;;;;;;;7.32;4.80;;;;;;;7.03;84.83;92504.19;4990304;28;20058;-77
2023/04/19 03:51:28;;;;;;;7.70;4.50;;;;;;;7.00;84.66;92493.53;4987695;28;20043;-77
2023/04/19 03:53:54;;;;;;;7.70;4.20;;;;;;;7.00;84.69;92498.72;4975356;28;20042;-77
2023/04/19 03:56:20;;;;;;;7.22;4.55;;;;;;;7.00;84.73;92498.72;5008381;28;20040;-77
2023/04/19 03:58:46;;;;;;;7.53;4.50;;;;;;;6.95;84.02;92489.13;5008074;28;20500;-77
2023/04/19 04:01:23;;;;;;;7.75;4.60;;;;;;;6.96;84.25;92497.69;5006349;28;20057;-77
2023/04/19 04:03:49;;;;;;;8.05;4.13;;;;;;;6.94;83.60;92490.16;4991581;28;20026;-77
2023/04/19 04:06:16;;;;;;;7.72;4.15;;;;;;;6.94;84.18;92490.16;4990935;28;20104;-75
2023/04/19 04:08:42;;;;;;;6.10;4.00;;;;;;;6.92;84.21;92486.28;4991076;28;20489;-77
2023/04/19 04:11:08;;;;;;;8.05;4.53;;;;;;;6.88;84.34;92484.19;4989873;28;20088;-77
2023/04/19 04:13:34;;;;;;;9.10;4.63;;;;;;;6.86;84.59;92491.47;4991200;28;20460;-77
2023/04/19 04:16:06;;;;;;;7.65;4.55;;;;;;;6.85;84.87;92492.53;4991336;28;20077;-77
2023/04/19 04:18:32;;;;;;;6.35;4.07;;;;;;;6.82;85.55;92492.25;4991129;28;20049;-77
2023/04/19 04:20:59;;;;;;;7.65;5.13;;;;;;;6.79;85.28;92488.34;4990257;28;20050;-77
2023/04/19 04:23:27;;;;;;;7.15;4.18;;;;;;;6.80;86.49;92489.94;4991286;28;20640;-77
2023/04/19 04:25:59;;;;;;;7.57;4.47;;;;;;;6.81;86.00;92495.91;4988549;28;20559;-77
2023/04/19 04:28:32;;;;;;;7.32;4.68;;;;;;;6.77;86.34;92482.63;5003074;28;20043;-77
2023/04/19 04:30:59;;;;;;;8.07;4.30;;;;;;;6.80;87.21;92484.72;4973170;28;20543;-77
2023/04/19 04:33:27;;;;;;;7.50;4.13;;;;;;;6.80;89.61;92483.94;4990807;28;20038;-77
2023/04/19 04:35:55;;;;;;;8.00;4.47;;;;;;;6.78;91.53;92488.63;4991101;28;20031;-77
2023/04/19 04:38:23;;;;;;;7.55;4.90;;;;;;;6.77;91.04;92490.44;4988478;28;20031;-77
2023/04/19 04:40:52;;;;;;;8.02;4.70;;;;;;;6.78;90.05;92491.25;4988350;28;20030;-77
2023/04/19 04:43:24;;;;;;;7.88;5.03;;;;;;;6.77;90.29;92480.03;4989919;28;20038;-77
2023/04/19 04:45:50;;;;;;;8.40;5.25;;;;;;;6.79;91.42;92488.34;4989499;28;20053;-77
2023/04/19 04:48:16;;;;;;;8.25;5.25;;;;;;;6.79;91.20;92484.97;4992534;28;20022;-78
2023/04/19 04:50:43;;;;;;;7.82;4.80;;;;;;;6.80;91.23;92487.34;4993212;28;20042;-79
2023/04/19 04:53:11;;;;;;;7.68;4.70;;;;;;;6.79;89.49;92488.34;4993678;28;20045;-79
2023/04/19 04:55:37;;;;;;;8.10;4.43;;;;;;;6.88;87.84;92486.00;4991476;28;20034;-79
2023/04/19 04:58:04;;;;;;;7.93;4.00;;;;;;;6.94;87.74;92486.78;4986140;28;20069;-79
2023/04/19 05:00:43;;;;;;;7.30;4.32;;;;;;;6.99;86.47;92486.78;4981824;28;20108;-79
2023/04/19 05:03:09;;;;;;;8.20;4.28;;;;;;;7.03;87.12;92482.59;4990062;28;20042;-78
2023/04/19 05:05:40;;;;;;;7.60;4.28;;;;;;;7.11;85.89;92489.09;4975492;28;20045;-79
2023/04/19 05:08:06;;;;;;;7.00;4.22;;;;;;;7.14;86.40;92481.53;4998069;28;20034;-79
2023/04/19 05:10:31;;;;;;;8.18;4.45;;;;;;;7.22;85.40;92485.41;4989692;28;20866;-79
2023/04/19 05:13:00;;;;;;;6.95;4.03;;;;;;;7.28;84.41;92479.16;4989523;28;20038;-78
2023/04/19 05:15:26;;;;;;;6.28;4.07;;;;;;;7.35;84.02;92486.69;4991061;28;20045;-78
2023/04/19 05:17:53;;;;;;;10.57;4.60;;;;;;;7.42;82.94;92474.16;5006334;28;20392;-76
2023/04/19 05:20:20;;;;;;;7.32;4.00;;;;;;;7.52;82.50;92479.34;4979451;28;20042;-76
2023/04/19 05:22:49;;;;;;;6.13;3.60;;;;;;;7.62;82.29;92483.72;4973365;28;20104;-75
2023/04/19 05:25:15;;;;;;;5.53;3.70;;;;;;;7.72;81.94;92484.47;4975532;28;20045;-75
2023/04/19 05:27:40;;;;;;;5.63;3.20;;;;;;;7.85;82.23;92474.47;4943526;28;20038;-76
2023/04/19 05:30:07;;;;;;;6.47;3.40;;;;;;;7.98;81.88;92473.88;4966678;28;20424;-75
2023/04/19 05:32:37;;;;;;;4.47;2.92;;;;;;;8.13;81.71;92480.84;4988647;28;20042;-77
2023/04/19 05:35:04;;;;;;;5.57;3.33;;;;;;;8.31;81.15;92482.03;4978365;28;20093;-78
2023/04/19 05:37:30;;;;;;;7.13;3.15;;;;;;;8.44;80.63;92473.59;4987746;28;20667;-76
2023/04/19 05:39:56;;;;;;;5.82;3.60;;;;;;;8.57;79.21;92480.03;4985319;28;20054;-75
2023/04/19 05:42:23;;;;;;;6.15;2.97;;;;;;;8.70;78.92;92483.84;4986392;28;20038;-76
2023/04/19 05:44:49;;;;;;;5.70;3.40;;;;;;;8.84;78.42;92482.16;4988536;28;20476;-75
2023/04/19 05:47:16;;;;;;;5.55;3.13;;;;;;;8.96;77.54;92474.75;4988365;28;20038;-75
2023/04/19 05:50:05;;;;;;;4.65;2.70;;;;;;;9.13;76.70;92476.91;4992566;28;20049;-75
2023/04/19 05:52:35;;;;;;;7.13;2.97;;;;;;;9.28;75.68;92483.81;4988403;28;20042;-75
2023/04/19 05:55:02;;;;;;;5.10;2.90;;;;;;;9.41;75.45;92476.34;4988904;28;20053;-75
2023/04/19 05:57:28;;;;;;;5.93;2.88;;;;;;;9.54;74.81;92481.69;4988235;28;20481;-75
2023/04/19 05:59:54;;;;;;;7.05;3.33;;;;;;;9.69;74.31;92475.50;4988107;28;20034;-75
2023/04/19 06:02:23;;;;;;;9.40;3.03;;;;;;;9.86;73.73;92479.47;4984745;28;20099;-76
2023/04/19 06:04:49;;;;;;;7.50;3.28;;;;;;;10.03;73.75;92479.03;4989040;28;20057;-76
2023/04/19 06:07:14;;;;;;;5.18;2.78;;;;;;;10.23;73.42;92472.72;4988407;28;20045;-76
2023/04/19 06:09:40;;;;;;;6.75;2.88;;;;;;;10.39;71.69;92466.22;4988091;28;20045;-75
2023/04/19 06:12:06;;;;;;;5.95;2.70;;;;;;;10.77;66.18;92474.03;4990354;28;20045;-76
2023/04/19 06:14:32;;;;;;;5.10;2.40;;;;;;;11.02;66.42;92472.81;4993316;28;20042;-76
2023/04/19 06:16:57;;;;;;;4.22;2.20;;;;;;;11.40;63.24;92468.19;5008253;28;20035;-76
2023/04/19 06:19:24;;;;;;;3.67;2.17;;;;;;;12.02;59.54;92469.63;4988971;28;20051;-76
2023/04/19 06:21:50;;;;;;;4.03;2.10;;;;;;;13.20;56.81;92465.06;4988990;28;20451;-76
2023/04/19 06:24:15;;;;;;;3.63;2.20;;;;;;;14.21;52.64;92472.31;4990146;28;20050;-76
2023/04/19 06:26:42;;;;;;;3.85;2.33;;;;;;;15.25;49.40;92467.00;4991842;28;20080;-76
2023/04/19 06:29:07;;;;;;;4.65;2.40;;;;;;;15.69;48.39;92467.59;4992812;28;20168;-76
2023/04/19 06:31:33;;;;;;;4.95;2.53;;;;;;;16.23;47.16;92461.72;4992657;28;20038;-76
2023/04/19 06:33:59;;;;;;;4.63;2.58;;;;;;;16.69;44.92;92457.34;4992024;28;20119;-77
2023/04/19 06:36:25;;;;;;;4.78;3.03;;;;;;;16.75;43.52;92456.06;4991748;28;20492;-77
2023/04/19 06:38:51;;;;;;;4.00;2.22;;;;;;;17.27;43.27;92460.88;4992440;28;20447;-77
2023/04/19 06:41:16;;;;;;;7.38;3.35;;;;;;;17.42;42.08;92466.63;4975888;28;20042;-77
2023/04/19 06:43:43;;;;;;;6.13;3.40;;;;;;;17.40;43.35;92451.06;4990655;28;20117;-77
2023/04/19 06:46:10;;;;;;;5.32;3.33;;;;;;;17.42;42.63;92456.03;4993167;28;20038;-77
2023/04/19 06:48:35;;;;;;;4.03;2.33;;;;;;;17.73;43.34;92450.22;4990649;28;20031;-76
2023/04/19 06:51:01;;;;;;;5.28;3.25;;;;;;;17.66;42.01;92456.06;4976521;28;20030;-76
2023/04/19 06:53:27;;;;;;;5.97;3.50;;;;;;;17.61;41.86;92452.88;4993388;28;20125;-76
2023/04/19 06:55:58;;;;;;;5.65;2.90;;;;;;;17.12;43.53;92450.16;4991823;28;20412;-76
2023/04/19 06:58:24;;;;;;;5.35;2.78;;;;;;;16.38;45.14;92458.53;4992703;28;20121;-76
2023/04/19 07:00:49;;;;;;;6.30;2.58;;;;;;;15.61;46.40;92450.72;4993550;28;20130;-76
2023/04/19 07:03:15;;;;;;;3.80;1.98;;;;;;;15.11;48.14;92440.06;4986604;28;20511;-76
2023/04/19 07:05:40;;;;;;;4.90;2.67;;;;;;;14.57;50.12;92453.63;4984271;28;20050;-75
2023/04/19 07:08:06;;;;;;;4.70;2.38;;;;;;;14.53;50.29;92450.81;4979614;28;20030;-76
2023/04/19 07:10:31;;;;;;;5.30;2.55;;;;;;;14.44;50.10;92446.63;4988016;28;20236;-76
2023/04/19 07:12:57;;;;;;;3.67;2.08;;;;;;;14.23;51.43;92451.72;4988312;28;20033;-76
2023/04/19 07:15:23;;;;;;;5.03;2.80;;;;;;;13.98;50.61;92448.75;4977351;28;20046;-76
2023/04/19 07:17:48;;;;;;;4.95;2.85;;;;;;;13.92;50.97;92448.13;4981068;28;20023;-76
2023/04/19 07:20:14;;;;;;;5.43;3.00;;;;;;;13.69;51.24;92444.84;4984031;28;20046;-76
2023/04/19 07:22:40;;;;;;;4.28;2.60;;;;;;;14.04;52.42;92430.97;4981901;28;20085;-76
2023/04/19 07:25:06;;;;;;;6.57;3.17;;;;;;;13.90;52.21;92437.16;4975950;28;20038;-76
2023/04/19 07:27:32;;;;;;;7.25;4.13;;;;;;;13.74;50.14;92433.41;4995436;28;20192;-76
2023/04/19 07:29:57;;;;;;;3.92;2.22;;;;;;;13.89;52.73;92432.97;4990345;28;20035;-76
2023/04/19 07:32:23;;;;;;;5.72;2.78;;;;;;;14.29;51.49;92424.94;4990882;28;20110;-76
2023/04/19 07:34:50;;;;;;;5.95;2.83;;;;;;;14.45;50.90;92432.38;4992092;28;20060;-76
2023/04/19 07:37:16;;;;;;;6.13;3.38;;;;;;;14.44;49.94;92428.22;4993989;28;20093;-76
2023/04/19 07:39:41;;;;;;;4.95;2.92;;;;;;;14.33;50.72;92433.78;4993386;28;20035;-76
2023/04/19 07:42:07;;;;;;;6.05;3.60;;;;;;;14.27;51.08;92429.75;4993968;28;20045;-76
2023/04/19 07:44:33;;;;;;;7.55;4.10;;;;;;;14.16;49.81;92433.75;4993252;28;20089;-76
2023/04/19 07:46:58;;;;;;;4.75;2.95;;;;;;;14.31;50.69;92425.41;4994049;28;20030;-76
2023/04/19 07:49:24;;;;;;;7.22;3.15;;;;;;;14.27;49.60;92418.44;4993665;28;20041;-76
2023/04/19 07:51:50;;;;;;;5.93;3.28;;;;;;;14.21;52.79;92425.72;4991962;28;20049;-76
2023/04/19 07:54:19;;;;;;;6.68;3.15;;;;;;;14.37;49.12;92428.66;4993227;28;20101;-76
2023/04/19 07:56:45;;;;;;;7.85;3.28;;;;;;;14.36;48.95;92417.38;4991800;28;20129;-76
2023/04/19 07:59:10;;;;;;;6.55;3.33;;;;;;;14.28;51.50;92423.41;4988565;28;20070;-76
2023/04/19 08:01:36;;;;;;;4.68;2.78;;;;;;;14.34;49.24;92421.38;4973376;28;20027;-76
2023/04/19 08:04:01;;;;;;;3.38;2.00;;;;;;;14.50;49.49;92413.78;4973324;28;20299;-75
2023/04/19 08:06:28;;;;;;;6.05;2.90;;;;;;;14.65;49.64;92413.31;4972242;28;20023;-76
2023/04/19 08:08:54;;;;;;;4.63;2.67;;;;;;;14.62;49.75;92407.91;4977985;28;20041;-77
2023/04/19 08:11:19;;;;;;;4.72;2.88;;;;;;;14.41;49.12;92413.00;4988220;28;20047;-76
2023/04/19 08:13:45;;;;;;;6.25;2.63;;;;;;;14.44;51.17;92412.41;4973033;28;20026;-77
2023/04/19 08:16:10;;;;;;;4.00;2.58;;;;;;;14.28;50.45;92410.25;4973372;28;20061;-76
2023/04/19 08:18:36;;;;;;;5.00;2.83;;;;;;;14.42;50.17;92411.94;4988214;28;20043;-76
2023/04/19 08:21:01;;;;;;;6.30;3.00;;;;;;;14.78;51.36;92412.38;4972968;28;20190;-76
2023/04/19 08:23:27;;;;;;;5.45;3.45;;;;;;;14.67;49.40;92405.13;4972874;28;20030;-76
2023/04/19 08:25:53;;;;;;;5.65;3.10;;;;;;;14.87;49.20;92401.03;4978114;28;20476;-76
2023/04/19 08:28:18;;;;;;;4.10;2.55;;;;;;;14.80;49.50;92409.44;4992793;28;20077;-76
2023/04/19 08:30:44;;;;;;;3.92;2.30;;;;;;;14.83;48.56;92408.03;4990064;28;20046;-76
2023/04/19 08:33:09;;;;;;;4.68;2.72;;;;;;;14.74;48.56;92405.41;4991811;28;20084;-76
2023/04/19 08:35:37;;;;;;;4.22;2.40;;;;;;;14.40;48.51;92401.72;4981603;28;20043;-76
2023/04/19 08:38:03;;;;;;;10.00;3.67;;;;;;;14.57;48.75;92395.69;4985516;28;20041;-76
2023/04/19 08:40:30;;;;;;;4.13;2.72;;;;;;;14.93;50.99;92405.84;4990767;28;20400;-76
2023/04/19 08:42:56;;;;;;;4.47;2.50;;;;;;;15.01;48.59;92398.97;4990728;28;20031;-76
2023/04/19 08:45:26;;;;;;;5.65;2.85;;;;;;;14.82;49.97;92395.94;4992093;28;20105;-76
2023/04/19 08:47:53;;;;;;;5.63;2.97;;;;;;;14.69;49.57;92387.13;4990906;28;20396;-76
2023/04/19 08:50:20;;;;;;;3.60;2.20;;;;;;;14.76;48.68;92387.44;4977368;28;20039;-76
2023/04/19 08:52:46;;;;;;;5.18;3.15;;;;;;;14.77;50.02;92389.75;4955336;28;20038;-76
2023/04/19 08:55:13;;;;;;;4.00;2.13;;;;;;;14.93;48.57;92384.00;4972480;28;20030;-76
2023/04/19 08:57:39;;;;;;;5.55;2.85;;;;;;;15.07;49.70;92394.31;4972308;28;20401;-76
2023/04/19 09:00:10;;;;;;;3.80;1.70;;;;;;;14.87;47.95;92388.63;4983936;28;20034;-76
2023/04/19 09:02:46;;;;;;;4.72;2.70;;;;;;;14.78;50.07;92388.66;4991581;28;20050;-76
2023/04/19 09:05:14;;;;;;;4.43;2.53;;;;;;;14.63;48.25;92386.50;4991730;28;20043;-76
2023/04/19 09:07:41;;;;;;;4.40;2.58;;;;;;;14.85;51.01;92379.50;4990446;28;20318;-76
2023/04/19 09:10:11;;;;;;;5.40;3.10;;;;;;;14.68;49.79;92380.31;4991595;28;20103;-75
2023/04/19 09:12:38;;;;;;;5.97;3.38;;;;;;;14.63;51.33;92388.38;4989019;28;20026;-75
2023/04/19 09:15:07;;;;;;;7.15;3.53;;;;;;;14.95;51.40;92376.50;5006169;28;20084;-75
2023/04/19 09:17:34;;;;;;;6.18;3.13;;;;;;;15.30;49.18;92374.53;4990433;28;20042;-77
2023/04/19 09:20:00;;;;;;;6.25;3.22;;;;;;;14.98;51.13;92376.66;5004879;28;20443;-75
2023/04/19 09:22:25;;;;;;;5.70;3.53;;;;;;;15.14;50.54;92376.91;4991213;28;20275;-77
2023/04/19 09:24:52;;;;;;;5.03;3.00;;;;;;;15.11;49.62;92372.28;4991486;28;20571;-77
2023/04/19 09:27:31;;;;;;;4.95;2.88;;;;;;;15.02;49.62;92370.75;4989588;28;20037;-77
2023/04/19 09:30:01;;;;;;;5.53;3.22;;;;;;;15.21;50.23;92368.50;4971997;28;20212;-77
2023/04/19 09:32:28;;;;;;;4.63;2.63;;;;;;;15.15;49.07;92360.03;4986841;28;20042;-77
2023/04/19 09:34:58;;;;;;;4.22;2.70;;;;;;;15.23;48.73;92352.38;4975654;28;20056;-77
2023/04/19 09:37:25;;;;;;;3.97;2.70;;;;;;;15.39;48.75;92351.50;4991426;28;20081;-77
2023/04/19 09:39:51;;;;;;;4.35;2.60;;;;;;;15.54;48.37;92352.06;4991319;28;20097;-76
2023/04/19 09:42:19;;;;;;;2.88;1.92;;;;;;;15.93;47.19;92350.13;4990039;28;20447;-77
2023/04/19 09:44:57;;;;;;;4.18;2.45;;;;;;;15.84;46.95;92337.00;4990198;28;20461;-76
2023/04/19 09:47:28;;;;;;;4.18;2.10;;;;;;;15.80;47.32;92339.50;4990019;28;20096;-76
2023/04/19 09:50:08;;;;;;;4.40;2.20;;;;;;;15.83;46.87;92332.81;4992324;28;20041;-76
2023/04/19 09:52:34;;;;;;;6.65;2.20;;;;;;;15.88;47.24;92334.50;4992228;28;20088;-77
2023/04/19 09:55:03;;;;;;;3.15;2.03;;;;;;;15.96;44.44;92329.16;4993610;28;20504;-77
2023/04/19 09:57:30;;;;;;;4.93;2.25;;;;;;;15.80;46.58;92333.44;4986090;28;20047;-78
2023/04/19 09:59:58;;;;;;;4.03;2.20;;;;;;;15.90;46.34;92325.16;4991965;28;20039;-78
2023/04/19 10:02:25;;;;;;;3.15;1.92;;;;;;;16.21;47.07;92326.59;4994004;28;20397;-78
2023/04/19 10:04:54;;;;;;;3.47;2.08;;;;;;;16.09;46.71;92324.69;4995113;28;20125;-78
2023/04/19 10:07:19;;;;;;;3.05;1.65;;;;;;;16.03;46.01;92318.84;4993742;28;20022;-78
2023/04/19 10:09:49;;;;;;;3.40;2.10;;;;;;;15.85;45.34;92314.81;4988591;28;20129;-78
2023/04/19 10:12:15;;;;;;;3.58;1.80;;;;;;;15.79;46.37;92308.94;4996225;28;20053;-78
2023/04/19 10:14:41;;;;;;;2.83;1.60;;;;;;;16.00;47.40;92306.28;4994690;28;20034;-77
2023/04/19 10:17:07;;;;;;;2.90;1.70;;;;;;;16.24;46.25;92315.41;4995718;28;20046;-77
2023/04/19 10:19:34;;;;;;;3.78;2.03;;;;;;;16.21;46.87;92305.47;4994066;28;20084;-77
2023/04/19 10:22:04;;;;;;;2.67;1.58;;;;;;;16.66;47.54;92304.72;4992611;28;20071;-77
2023/04/19 10:24:30;;;;;;;2.80;1.88;;;;;;;16.68;45.82;92296.47;4984638;28;20038;-78
2023/04/19 10:27:09;;;;;;;2.63;1.67;;;;;;;16.14;46.22;92299.94;4994055;28;20386;-78
2023/04/19 10:29:59;;;;;;;3.08;1.80;;;;;;;16.31;47.57;92299.78;4984610;28;20046;-76
2023/04/19 10:32:27;;;;;;;3.15;1.90;;;;;;;16.43;47.31;92297.16;4992453;28;20034;-77
2023/04/19 10:34:53;;;;;;;2.80;1.70;;;;;;;16.62;46.97;92285.34;4992980;28;20030;-77
2023/04/19 10:37:22;;;;;;;2.70;1.90;;;;;;;16.57;47.68;92293.47;4992604;28;20491;-76
2023/04/19 10:39:48;;;;;;;2.90;1.70;;;;;;;16.57;46.49;92286.34;4991339;28;20045;-76
2023/04/19 10:42:14;;;;;;;3.20;1.90;;;;;;;16.40;46.78;92281.97;5007925;28;20034;-76
2023/04/19 10:44:39;;;;;;;3.40;1.88;;;;;;;16.33;47.33;92268.53;4994125;28;20113;-77
2023/04/19 10:47:05;;;;;;;3.05;1.88;;;;;;;16.50;46.63;92270.22;4992078;28;20512;-76
2023/04/19 10:49:30;;;;;;;3.28;1.80;;;;;;;16.62;47.22;92261.56;4991505;28;20042;-76
2023/04/19 10:51:59;;;;;;;2.08;1.42;;;;;;;16.65;45.45;92260.91;4992666;28;20651;-76
2023/04/19 10:54:38;;;;;;;2.42;1.67;;;;;;;16.62;46.01;92272.13;4997033;28;20045;-77
2023/04/19 10:57:05;;;;;;;3.47;1.90;;;;;;;16.81;46.68;92256.53;4985959;28;20034;-76
2023/04/19 10:59:33;;;;;;;2.60;1.77;;;;;;;16.75;45.07;92251.75;4992728;28;20050;-77
2023/04/19 11:02:00;;;;;;;3.13;2.00;;;;;;;16.87;45.20;92245.75;4991456;28;20030;-77
2023/04/19 11:04:29;;;;;;;2.42;1.60;;;;;;;16.89;45.66;92235.59;4991349;28;20088;-77
2023/04/19 11:06:55;;;;;;;3.65;1.88;;;;;;;16.85;44.53;92235.50;4991681;28;20026;-78
2023/04/19 11:09:33;;;;;;;2.72;1.65;;;;;;;16.85;45.88;92233.63;4993323;28;20046;-77
2023/04/19 11:12:11;;;;;;;1.80;1.33;;;;;;;16.95;46.26;92234.28;5008576;28;20096;-77
2023/04/19 11:14:44;;;;;;;2.50;1.60;;;;;;;16.80;45.56;92228.56;4995210;28;20037;-77
2023/04/19 11:17:18;;;;;;;3.17;2.13;;;;;;;16.82;45.41;92215.78;4998416;28;20042;-77
2023/04/19 11:20:01;;;;;;;3.33;2.00;;;;;;;16.74;45.52;92221.91;4993082;28;20502;-78
2023/04/19 11:22:37;;;;;;;3.53;2.00;;;;;;;16.94;44.78;92207.06;4990664;28;20548;-76
2023/04/19 11:25:18;;;;;;;4.28;1.80;;;;;;;17.02;45.20;92205.41;4990035;28;20040;-77
2023/04/19 11:27:51;;;;;;;3.83;2.45;;;;;;;17.14;45.05;92188.78;4986251;28;20089;-77
2023/04/19 11:30:28;;;;;;;3.25;2.03;;;;;;;17.20;44.90;92188.22;4975066;28;20427;-77
2023/04/19 11:32:56;;;;;;;3.28;1.83;;;;;;;17.20;44.37;92193.50;4993508;28;20124;-77
2023/04/19 11:35:27;;;;;;;4.15;2.10;;;;;;;16.85;45.53;92193.97;4993180;28;20109;-77
2023/04/19 11:37:55;;;;;;;3.22;2.15;;;;;;;16.74;46.35;92178.88;5011517;28;20032;-77